createdAt,value
2018-11-20T00:07:22.026Z,25.77
2018-11-20T00:11:01.008Z,25.43
2018-11-20T00:14:02.425Z,26.13
2018-11-20T00:16:14.354Z,26.17
2018-11-20T00:19:44.223Z,24.87
2018-11-20T00:23:50.969Z,28.23
2018-11-20T00:30:54.925Z,26.73
2018-11-20T00:39:52.797Z,28.23
2018-11-20T00:40:46.784Z,31.70
2018-11-20T00:43:36.862Z,30.00
2018-11-20T00:48:26.629Z,30.70
2018-11-20T00:51:25.244Z,31.33
2018-11-20T00:52:19.805Z,29.30
2018-11-20T00:55:26.690Z,29.10
2018-11-20T01:02:00.000Z,27.63
2018-11-20T01:09:17.626Z,28.83
2018-11-20T01:37:19.075Z,29.77
2018-11-20T01:47:22.976Z,35.73
2018-11-20T01:56:47.359Z,34.33
2018-11-20T01:57:32.945Z,32.03
2018-11-20T02:07:46.880Z,32.80
2018-11-20T02:10:13.946Z,31.90
2018-11-20T02:13:22.741Z,33.30
2018-11-20T02:17:59.236Z,31.47
2018-11-20T02:18:51.667Z,33.10
2018-11-20T02:19:44.440Z,33.03
2018-11-20T02:20:31.121Z,31.87
2018-11-20T02:21:26.420Z,31.30
2018-11-20T02:22:26.864Z,26.17
2018-11-20T02:23:19.922Z,28.77
2018-11-20T02:24:12.658Z,30.13
2018-11-20T02:25:06.887Z,32.03
2018-11-20T02:26:10.113Z,29.83
2018-11-20T02:27:21.933Z,28.47
2018-11-20T02:28:19.252Z,33.30
2018-11-20T02:29:15.609Z,27.50
2018-11-20T02:30:12.595Z,30.07
2018-11-20T02:31:12.590Z,29.63
2018-11-20T02:32:15.614Z,31.07
2018-11-20T02:33:10.103Z,29.97
2018-11-20T02:34:03.455Z,27.90
2018-11-20T02:35:09.361Z,35.23
2018-11-20T02:36:21.723Z,30.60
2018-11-20T02:37:18.877Z,30.57
2018-11-20T02:38:12.843Z,28.87
2018-11-20T02:39:05.233Z,29.77
2018-11-20T02:39:59.006Z,29.30
2018-11-20T02:40:55.865Z,31.00
2018-11-20T02:41:59.113Z,31.60
2018-11-20T02:42:52.141Z,28.87
2018-11-20T02:43:49.289Z,28.63
2018-11-20T02:44:38.211Z,28.77
2018-11-20T02:45:35.457Z,32.17
2018-11-20T02:46:35.253Z,28.57
2018-11-20T02:47:35.248Z,28.47
2018-11-20T02:48:42.041Z,30.17
2018-11-20T02:49:32.974Z,31.13
2018-11-20T02:50:25.375Z,27.30
2018-11-20T02:51:22.348Z,28.87
2018-11-20T02:52:15.170Z,32.43
2018-11-20T02:53:08.038Z,30.30
2018-11-20T02:54:10.014Z,30.43
2018-11-20T02:55:04.101Z,26.40
2018-11-20T02:55:53.379Z,31.50
2018-11-20T02:56:45.893Z,29.33
2018-11-20T02:57:51.714Z,29.57
2018-11-20T02:58:39.109Z,31.63
2018-11-20T02:59:32.065Z,32.07
2018-11-20T03:00:29.774Z,29.57
2018-11-20T03:01:22.475Z,29.27
2018-11-20T03:02:08.662Z,29.90
2018-11-20T03:03:18.102Z,31.30
2018-11-20T03:04:15.391Z,31.93
2018-11-20T03:05:02.415Z,28.93
2018-11-20T03:06:08.537Z,28.73
2018-11-20T03:06:53.118Z,29.50
2018-11-20T03:07:44.720Z,30.00
2018-11-20T03:08:35.020Z,28.67
2018-11-20T03:09:27.718Z,29.40
2018-11-20T03:10:21.920Z,29.37
2018-11-20T03:11:14.793Z,31.73
2018-11-20T03:12:08.083Z,29.43
2018-11-20T03:12:53.762Z,27.67
2018-11-20T03:13:46.338Z,30.17
2018-11-20T03:14:32.215Z,27.23
2018-11-20T03:15:27.171Z,29.83
2018-11-20T03:16:19.967Z,28.67
2018-11-20T03:17:23.102Z,28.37
2018-11-20T03:18:20.159Z,30.33
2018-11-20T03:19:29.531Z,30.07
2018-11-20T03:20:22.591Z,27.80
2018-11-20T03:21:15.254Z,28.83
2018-11-20T03:22:12.220Z,30.03
2018-11-20T03:23:02.965Z,29.93
2018-11-20T03:24:08.991Z,27.27
2018-11-20T03:25:06.190Z,28.67
2018-11-20T03:26:04.107Z,26.67
2018-11-20T03:26:56.615Z,29.40
2018-11-20T03:27:53.845Z,27.87
2018-11-20T03:28:50.830Z,30.10
2018-11-20T03:30:42.527Z,26.17
2018-11-20T03:31:34.868Z,28.60
2018-11-20T03:32:29.468Z,32.07
2018-11-20T03:33:17.558Z,29.17
2018-11-20T03:34:06.173Z,29.70
2018-11-20T03:34:52.503Z,28.73
2018-11-20T03:35:44.769Z,27.20
2018-11-20T03:36:35.781Z,27.60
2018-11-20T03:37:35.479Z,26.73
2018-11-20T03:38:30.710Z,26.23
2018-11-20T03:39:30.268Z,27.10
2018-11-20T03:40:43.167Z,28.73
2018-11-20T03:41:37.507Z,26.87
2018-11-20T03:42:28.312Z,28.60
2018-11-20T03:43:15.242Z,25.50
2018-11-20T03:44:08.591Z,27.03
2018-11-20T03:45:00.978Z,26.67
2018-11-20T03:45:50.264Z,31.83
2018-11-20T03:47:02.309Z,30.00
2018-11-20T03:48:06.073Z,26.67
2018-11-20T03:48:58.938Z,28.83
2018-11-20T03:49:51.600Z,28.43
2018-11-20T03:51:03.854Z,29.10
2018-11-20T03:51:54.567Z,28.93
2018-11-20T03:52:57.652Z,28.07
2018-11-20T03:53:46.886Z,28.00
2018-11-20T03:54:59.231Z,26.63
2018-11-20T03:55:48.832Z,27.70
2018-11-20T03:56:45.743Z,28.67
2018-11-20T03:57:42.933Z,26.77
2018-11-20T03:58:49.353Z,28.13
2018-11-20T03:59:42.764Z,28.67
2018-11-20T04:00:35.291Z,29.43
2018-11-20T04:01:23.881Z,26.73
2018-11-20T04:02:16.586Z,28.37
2018-11-20T04:03:13.523Z,27.27
2018-11-20T04:03:57.833Z,24.90
2018-11-20T04:04:58.384Z,28.97
2018-11-20T04:06:08.383Z,28.57
2018-11-20T04:07:05.459Z,27.67
2018-11-20T04:08:05.188Z,29.87
2018-11-20T04:08:57.873Z,27.97
2018-11-20T04:09:50.962Z,29.77
2018-11-20T04:10:48.048Z,29.13
2018-11-20T04:11:32.956Z,26.57
2018-11-20T04:12:30.094Z,26.07
2018-11-20T04:13:22.674Z,29.57
2018-11-20T04:14:15.288Z,26.40
2018-11-20T04:15:12.495Z,29.30
2018-11-20T04:16:05.415Z,29.33
2018-11-20T04:16:58.564Z,30.47
2018-11-20T04:17:52.005Z,31.87
2018-11-20T04:18:52.678Z,28.70
2018-11-20T04:19:49.692Z,29.43
2018-11-20T04:20:53.366Z,26.40
2018-11-20T04:21:45.837Z,27.37
2018-11-20T04:22:43.262Z,27.63
2018-11-20T04:23:29.809Z,27.17
2018-11-20T04:24:39.199Z,31.40
2018-11-20T04:25:32.001Z,27.10
2018-11-20T04:26:35.486Z,27.63
2018-11-20T04:27:27.916Z,27.07
2018-11-20T04:28:17.273Z,25.63
2018-11-20T04:29:20.531Z,26.53
2018-11-20T04:30:43.867Z,26.63
2018-11-20T04:32:18.801Z,28.27
2018-11-20T04:33:51.053Z,25.03
2018-11-20T04:34:53.935Z,24.23
2018-11-20T04:35:37.189Z,28.77
2018-11-20T04:36:29.999Z,27.23
2018-11-20T04:37:22.968Z,26.53
2018-11-20T04:38:08.288Z,28.30
2018-11-20T04:39:00.150Z,25.73
2018-11-20T04:39:57.193Z,25.90
2018-11-20T04:40:48.085Z,27.07
2018-11-20T04:41:30.855Z,28.10
2018-11-20T04:42:34.066Z,26.20
2018-11-20T04:43:29.178Z,28.20
2018-11-20T04:44:25.883Z,25.40
2018-11-20T04:45:25.927Z,29.20
2018-11-20T04:46:11.792Z,26.63
2018-11-20T04:46:56.517Z,30.60
2018-11-20T04:47:49.700Z,27.90
2018-11-20T04:48:44.251Z,29.50
2018-11-20T04:49:28.817Z,30.73
2018-11-20T04:50:13.097Z,29.53
2018-11-20T04:51:10.088Z,25.43
2018-11-20T04:52:01.170Z,28.27
2018-11-20T04:52:46.726Z,26.80
2018-11-20T04:53:41.213Z,27.17
2018-11-20T04:54:26.385Z,26.27
2018-11-20T04:55:24.935Z,28.33
2018-11-20T04:56:22.544Z,28.73
2018-11-20T04:57:17.632Z,28.97
2018-11-20T04:58:09.958Z,27.13
2018-11-20T04:59:02.982Z,28.93
2018-11-20T05:00:06.515Z,29.90
2018-11-20T05:01:10.447Z,29.17
2018-11-20T05:02:12.101Z,30.97
2018-11-20T05:03:00.221Z,30.00
2018-11-20T05:03:57.326Z,28.93
2018-11-20T05:04:48.542Z,25.20
2018-11-20T05:05:41.030Z,30.30
2018-11-20T05:06:38.070Z,30.90
2018-11-20T05:07:37.720Z,26.60
2018-11-20T05:08:26.815Z,29.57
2018-11-20T05:09:20.009Z,28.40
2018-11-20T05:10:26.169Z,28.63
2018-11-20T05:11:19.004Z,29.80
2018-11-20T05:12:09.991Z,29.23
2018-11-20T05:13:06.255Z,28.33
2018-11-20T05:13:59.441Z,31.33
2018-11-20T05:14:52.381Z,29.03
2018-11-20T05:15:45.750Z,29.40
2018-11-20T05:16:40.582Z,31.07
2018-11-20T05:17:33.501Z,28.23
2018-11-20T05:18:33.509Z,29.17
2018-11-20T05:19:45.703Z,31.30
2018-11-20T05:20:39.937Z,28.77
2018-11-20T05:21:42.355Z,30.47
2018-11-20T05:22:42.926Z,27.67
2018-11-20T05:23:37.321Z,27.57
2018-11-20T05:24:22.421Z,30.33
2018-11-20T05:25:26.251Z,27.20
2018-11-20T05:26:17.887Z,29.30
2018-11-20T05:27:10.825Z,28.20
2018-11-20T05:28:03.619Z,30.27
2018-11-20T05:29:03.396Z,29.97
2018-11-20T05:29:55.892Z,29.70
2018-11-20T05:30:52.971Z,29.90
2018-11-20T05:31:52.965Z,28.23
2018-11-20T05:32:53.760Z,30.33
2018-11-20T05:34:02.820Z,28.87
2018-11-20T05:34:47.721Z,29.87
2018-11-20T05:35:54.223Z,32.07
2018-11-20T05:36:47.172Z,27.40
2018-11-20T05:37:47.936Z,30.57
2018-11-20T05:38:41.162Z,32.40
2018-11-20T05:39:50.204Z,31.50
2018-11-20T05:40:55.948Z,26.20
2018-11-20T05:41:53.318Z,31.97
2018-11-20T05:43:03.291Z,31.07
2018-11-20T05:43:51.163Z,31.63
2018-11-20T05:45:03.461Z,29.93
2018-11-20T05:46:05.636Z,30.90
2018-11-20T05:46:58.401Z,30.27
2018-11-20T05:47:55.288Z,31.00
2018-11-20T05:48:55.805Z,32.17
2018-11-20T05:49:48.992Z,30.50
2018-11-20T05:50:41.466Z,28.93
2018-11-20T05:51:34.066Z,30.63
2018-11-20T05:52:31.460Z,31.97
2018-11-20T05:53:40.801Z,30.47
2018-11-20T05:54:33.933Z,32.43
2018-11-20T05:55:28.393Z,27.90
2018-11-20T05:56:28.305Z,30.43
2018-11-20T05:57:31.997Z,31.77
2018-11-20T05:58:18.152Z,33.20
2018-11-20T05:59:15.174Z,32.47
2018-11-20T06:00:05.305Z,32.67
2018-11-20T06:01:11.589Z,30.63
2018-11-20T06:02:00.142Z,29.97
2018-11-20T06:02:53.350Z,28.53
2018-11-20T06:03:46.380Z,28.57
2018-11-20T06:04:33.630Z,33.53
2018-11-20T06:05:20.780Z,30.13
2018-11-20T06:06:29.823Z,29.07
2018-11-20T06:07:15.561Z,29.63
2018-11-20T06:08:06.905Z,30.40
2018-11-20T06:09:16.120Z,32.10
2018-11-20T06:10:09.161Z,29.70
2018-11-20T06:11:03.387Z,27.67
2018-11-20T06:11:56.126Z,31.77
2018-11-20T06:12:47.346Z,31.67
2018-11-20T06:13:40.276Z,33.17
2018-11-20T06:14:37.019Z,35.13
2018-11-20T06:15:40.402Z,29.70
2018-11-20T06:16:35.105Z,32.30
2018-11-20T06:17:35.280Z,31.63
2018-11-20T06:18:38.554Z,33.23
2018-11-20T06:19:33.515Z,29.70
2018-11-20T06:20:26.197Z,27.93
2018-11-20T06:21:22.934Z,31.17
2018-11-20T06:22:15.419Z,29.23
2018-11-20T06:23:09.693Z,33.50
2018-11-20T06:24:02.557Z,28.17
2018-11-20T06:24:56.751Z,31.37
2018-11-20T06:25:49.454Z,31.13
2018-11-20T06:26:43.515Z,35.30
2018-11-20T06:27:49.403Z,32.60
2018-11-20T06:28:42.082Z,30.17
2018-11-20T06:29:34.439Z,32.20
2018-11-20T06:30:25.426Z,34.60
2018-11-20T06:31:31.220Z,32.17
2018-11-20T06:32:24.079Z,29.97
2018-11-20T06:33:21.783Z,29.73
2018-11-20T06:34:22.623Z,31.63
2018-11-20T06:35:16.784Z,30.40
2018-11-20T06:36:28.860Z,29.50
2018-11-20T06:37:23.180Z,31.40
2018-11-20T06:38:16.193Z,32.10
2018-11-20T06:39:10.325Z,33.67
2018-11-20T06:40:04.417Z,30.80
2018-11-20T06:40:56.977Z,31.87
2018-11-20T06:41:49.845Z,31.00
2018-11-20T06:42:44.055Z,30.53
2018-11-20T06:43:50.276Z,30.40
2018-11-20T06:44:42.997Z,29.20
2018-11-20T06:45:37.284Z,32.53
2018-11-20T06:46:30.026Z,29.77
2018-11-20T06:47:36.737Z,31.90
2018-11-20T06:48:42.667Z,29.67
2018-11-20T06:49:55.031Z,27.60
2018-11-20T06:50:54.745Z,32.60
2018-11-20T06:51:40.739Z,35.50
2018-11-20T06:52:33.440Z,32.43
2018-11-20T06:53:22.848Z,31.33
2018-11-20T06:54:15.517Z,31.67
2018-11-20T06:55:28.292Z,31.20
2018-11-20T06:56:20.929Z,30.03
2018-11-20T06:57:14.997Z,28.00
2018-11-20T06:58:26.907Z,29.07
2018-11-20T06:59:19.422Z,35.63
2018-11-20T07:00:11.910Z,30.50
2018-11-20T07:01:04.321Z,33.70
2018-11-20T07:02:01.157Z,32.50
2018-11-20T07:02:58.092Z,31.80
2018-11-20T07:03:57.644Z,29.80
2018-11-20T07:05:07.036Z,31.30
2018-11-20T07:06:10.619Z,30.53
2018-11-20T07:07:07.450Z,31.90
2018-11-20T07:07:59.988Z,33.57
2018-11-20T07:08:52.616Z,29.33
2018-11-20T07:09:41.442Z,30.87
2018-11-20T07:10:34.435Z,30.77
2018-11-20T07:11:26.968Z,30.90
2018-11-20T07:12:20.183Z,29.77
2018-11-20T07:13:17.299Z,28.67
2018-11-20T07:14:37.651Z,31.23
2018-11-20T07:15:30.670Z,32.83
2018-11-20T07:16:46.248Z,30.77
2018-11-20T07:17:42.670Z,32.97
2018-11-20T07:18:48.937Z,33.20
2018-11-20T07:19:45.108Z,30.07
2018-11-20T07:20:37.883Z,32.97
2018-11-20T07:21:35.022Z,31.53
2018-11-20T07:22:35.072Z,31.57
2018-11-20T07:23:24.036Z,32.10
2018-11-20T07:24:16.308Z,34.23
2018-11-20T07:25:13.151Z,31.80
2018-11-20T07:26:06.032Z,28.10
2018-11-20T07:27:03.059Z,31.20
2018-11-20T07:27:55.794Z,31.83
2018-11-20T07:28:41.483Z,33.27
2018-11-20T07:29:50.947Z,28.40
2018-11-20T07:30:34.060Z,30.53
2018-11-20T07:31:26.658Z,30.17
2018-11-20T07:32:27.524Z,28.67
2018-11-20T07:33:24.700Z,30.33
2018-11-20T07:34:17.308Z,31.70
2018-11-20T07:35:17.094Z,32.90
2018-11-20T07:36:09.454Z,29.37
2018-11-20T07:36:57.280Z,32.07
2018-11-20T07:38:06.498Z,30.23
2018-11-20T07:38:58.945Z,30.03
2018-11-20T07:39:55.755Z,31.97
2018-11-20T07:40:45.410Z,30.63
2018-11-20T07:41:42.625Z,30.17
2018-11-20T07:42:30.147Z,30.60
2018-11-20T07:43:36.772Z,34.17
2018-11-20T07:44:24.952Z,32.43
2018-11-20T07:45:17.274Z,31.33
2018-11-20T07:46:09.847Z,28.87
2018-11-20T07:47:02.932Z,34.57
2018-11-20T07:47:52.572Z,32.37
2018-11-20T07:48:58.580Z,29.97
2018-11-20T07:49:46.901Z,33.70
2018-11-20T07:50:39.052Z,31.80
2018-11-20T07:51:26.872Z,32.40
2018-11-20T07:52:23.939Z,32.03
2018-11-20T07:53:29.764Z,31.30
2018-11-20T07:54:33.015Z,29.73
2018-11-20T07:55:37.082Z,32.90
2018-11-20T07:56:42.943Z,39.77
2018-11-20T07:57:35.600Z,33.70
2018-11-20T07:58:26.050Z,29.83
2018-11-20T07:59:32.228Z,31.83
2018-11-20T08:00:37.933Z,33.00
2018-11-20T08:01:30.324Z,33.60
2018-11-20T08:02:23.242Z,32.30
2018-11-20T08:03:17.161Z,30.40
2018-11-20T08:04:09.747Z,31.53
2018-11-20T08:05:04.395Z,30.10
2018-11-20T08:05:47.924Z,31.07
2018-11-20T08:06:54.109Z,34.57
2018-11-20T08:07:50.561Z,31.07
2018-11-20T08:08:43.339Z,32.37
2018-11-20T08:09:46.192Z,27.90
2018-11-20T08:10:45.906Z,30.60
2018-11-20T08:11:39.258Z,32.10
2018-11-20T08:12:32.492Z,30.47
2018-11-20T08:13:41.618Z,32.00
2018-11-20T08:14:53.603Z,30.10
2018-11-20T08:15:46.594Z,31.30
2018-11-20T08:16:40.799Z,32.03
2018-11-20T08:17:41.335Z,33.27
2018-11-20T08:18:38.109Z,34.47
2018-11-20T08:19:35.122Z,31.80
2018-11-20T08:20:41.651Z,30.47
2018-11-20T08:21:48.078Z,29.93
2018-11-20T08:22:40.300Z,34.50
2018-11-20T08:23:40.197Z,31.13
2018-11-20T08:24:46.861Z,33.97
2018-11-20T08:25:49.803Z,30.63
2018-11-20T08:26:36.892Z,33.93
2018-11-20T08:27:22.760Z,28.70
2018-11-20T08:28:25.591Z,33.33
2018-11-20T08:29:18.287Z,29.30
2018-11-20T08:30:30.301Z,34.93
2018-11-20T08:31:17.556Z,32.43
2018-11-20T08:32:17.697Z,29.80
2018-11-20T08:33:03.565Z,30.87
2018-11-20T08:33:56.928Z,32.33
2018-11-20T08:35:00.110Z,30.30
2018-11-20T08:35:53.303Z,34.33
2018-11-20T08:36:47.333Z,34.80
2018-11-20T08:37:48.012Z,29.77
2018-11-20T08:38:57.272Z,30.90
2018-11-20T08:39:52.395Z,31.03
2018-11-20T08:40:44.902Z,31.23
2018-11-20T08:41:39.111Z,28.67
2018-11-20T08:42:36.095Z,34.97
2018-11-20T08:43:39.133Z,34.13
2018-11-20T08:44:31.808Z,29.73
2018-11-20T08:45:24.314Z,34.60
2018-11-20T08:46:21.768Z,30.57
2018-11-20T08:47:13.396Z,32.83
2018-11-20T08:48:04.738Z,31.27
2018-11-20T08:49:11.124Z,31.50
2018-11-20T08:50:03.718Z,30.20
2018-11-20T08:51:02.289Z,30.67
2018-11-20T08:51:57.883Z,29.27
2018-11-20T08:52:50.901Z,33.83
2018-11-20T08:53:48.751Z,34.13
2018-11-20T08:55:00.537Z,30.43
2018-11-20T08:55:57.121Z,34.70
2018-11-20T08:56:49.853Z,32.53
2018-11-20T08:57:42.606Z,28.17
2018-11-20T08:58:46.350Z,34.17
2018-11-20T08:59:29.363Z,30.40
2018-11-20T09:00:36.161Z,31.27
2018-11-20T09:01:26.280Z,29.93
2018-11-20T09:02:23.568Z,30.10
2018-11-20T09:03:16.485Z,27.23
2018-11-20T09:04:09.199Z,30.73
2018-11-20T09:05:09.052Z,30.57
2018-11-20T09:06:01.508Z,30.43
2018-11-20T09:06:55.516Z,35.13
2018-11-20T09:07:50.123Z,32.87
2018-11-20T09:08:42.657Z,32.03
2018-11-20T09:09:36.646Z,28.53
2018-11-20T09:10:39.583Z,31.17
2018-11-20T09:11:33.833Z,33.43
2018-11-20T09:12:39.806Z,30.93
2018-11-20T09:13:46.035Z,34.10
2018-11-20T09:14:58.251Z,26.60
2018-11-20T09:15:52.905Z,29.93
2018-11-20T09:16:45.457Z,30.97
2018-11-20T09:17:54.895Z,31.67
2018-11-20T09:18:57.351Z,29.53
2018-11-20T09:19:49.753Z,32.20
2018-11-20T09:20:43.935Z,32.80
2018-11-20T09:21:55.982Z,30.73
2018-11-20T09:22:52.994Z,29.87
2018-11-20T09:23:50.023Z,29.87
2018-11-20T09:24:50.156Z,30.23
2018-11-20T09:25:42.823Z,28.10
2018-11-20T09:26:28.046Z,28.13
2018-11-20T09:27:28.387Z,30.33
2018-11-20T09:28:28.236Z,30.30
2018-11-20T09:29:25.656Z,31.80
2018-11-20T09:30:18.473Z,28.50
2018-11-20T09:31:27.650Z,31.77
2018-11-20T09:32:20.261Z,29.43
2018-11-20T09:33:14.752Z,30.77
2018-11-20T09:34:07.656Z,30.17
2018-11-20T09:34:56.886Z,29.30
2018-11-20T09:35:49.174Z,28.20
2018-11-20T09:36:41.898Z,30.50
2018-11-20T09:37:48.745Z,29.67
2018-11-20T09:38:41.122Z,29.47
2018-11-20T09:39:25.476Z,30.27
2018-11-20T09:40:53.552Z,30.83
2018-11-20T09:41:59.612Z,32.30
2018-11-20T09:42:55.293Z,28.50
2018-11-20T09:44:16.260Z,27.70
2018-11-20T09:45:55.013Z,33.93
2018-11-20T09:46:44.611Z,33.27
2018-11-20T09:47:37.364Z,32.80
2018-11-20T09:48:30.141Z,29.33
2018-11-20T09:49:39.732Z,29.13
2018-11-20T09:50:38.398Z,29.27
2018-11-20T09:51:31.350Z,32.73
2018-11-20T09:52:28.899Z,30.53
2018-11-20T09:53:21.419Z,28.60
2018-11-20T09:54:13.854Z,29.10
2018-11-20T09:55:05.937Z,33.73
2018-11-20T09:56:00.205Z,29.37
2018-11-20T09:56:53.075Z,30.03
2018-11-20T09:57:44.354Z,29.70
2018-11-20T09:58:41.463Z,28.17
2018-11-20T09:59:43.123Z,28.80
2018-11-20T10:00:51.991Z,26.87
2018-11-20T10:01:44.541Z,31.80
2018-11-20T10:02:37.026Z,28.03
2018-11-20T10:03:19.751Z,31.67
2018-11-20T10:04:12.852Z,29.23
2018-11-20T10:05:05.639Z,31.20
2018-11-20T10:05:48.228Z,32.67
2018-11-20T10:06:40.507Z,30.10
2018-11-20T10:07:33.099Z,28.80
2018-11-20T10:08:30.489Z,29.90
2018-11-20T10:09:27.224Z,31.63
2018-11-20T10:10:20.135Z,31.97
2018-11-20T10:11:20.192Z,28.47
2018-11-20T10:12:17.465Z,32.93
2018-11-20T10:13:02.159Z,30.93
2018-11-20T10:13:56.498Z,29.10
2018-11-20T10:14:50.936Z,30.50
2018-11-20T10:15:42.827Z,29.90
2018-11-20T10:16:48.590Z,28.80
2018-11-20T10:17:43.841Z,29.97
2018-11-20T10:18:36.349Z,30.10
2018-11-20T10:19:36.749Z,26.77
2018-11-20T10:20:29.472Z,29.93
2018-11-20T10:21:22.479Z,28.33
2018-11-20T10:22:31.447Z,26.70
2018-11-20T10:23:24.458Z,29.33
2018-11-20T10:24:17.084Z,29.77
2018-11-20T10:25:17.163Z,29.30
2018-11-20T10:26:05.047Z,31.87
2018-11-20T10:32:04.713Z,32.80
2018-11-20T10:49:00.238Z,33.77
2018-11-20T10:52:36.671Z,29.30
2018-11-20T11:01:06.804Z,31.23
2018-11-20T11:16:03.360Z,27.40
2018-11-20T11:16:56.837Z,28.87
2018-11-20T11:21:47.150Z,31.87
2018-11-20T11:22:36.198Z,29.67
2018-11-20T11:23:17.869Z,28.87
2018-11-20T11:30:02.249Z,33.60
2018-11-20T11:35:51.637Z,28.03
2018-11-20T11:41:17.208Z,28.53
2018-11-20T11:46:28.398Z,27.13
2018-11-20T11:47:33.570Z,30.77
2018-11-20T11:53:11.732Z,28.47
2018-11-20T12:09:13.247Z,29.93
2018-11-20T12:10:07.407Z,30.57
2018-11-20T12:11:00.676Z,31.23
2018-11-20T12:13:25.018Z,29.43
2018-11-20T12:14:18.252Z,32.93
2018-11-20T12:17:25.546Z,28.37
2018-11-20T12:18:19.189Z,29.73
2018-11-20T12:20:29.455Z,27.23
2018-11-20T12:21:22.606Z,29.57
2018-11-20T12:24:47.351Z,27.60
2018-11-20T12:29:41.075Z,30.63
2018-11-20T12:31:45.511Z,29.27
2018-11-20T12:32:38.891Z,30.03
2018-11-20T12:37:04.440Z,26.23
2018-11-20T12:37:59.325Z,27.23
2018-11-20T12:38:43.423Z,27.57
2018-11-20T12:39:35.742Z,26.00
2018-11-20T12:40:29.015Z,28.10
2018-11-20T12:44:56.705Z,25.37
2018-11-20T12:50:03.123Z,21.43
2018-11-20T12:56:15.670Z,19.17
2018-11-20T13:01:30.366Z,16.10
2018-11-20T13:03:51.340Z,15.83
2018-11-20T13:09:45.257Z,14.10
2018-11-20T13:11:55.906Z,14.67
2018-11-20T13:13:59.735Z,15.23
2018-11-20T13:16:05.941Z,15.47
2018-11-20T13:18:21.503Z,15.93
2018-11-20T13:20:26.035Z,15.93
2018-11-20T13:21:13.773Z,19.07
2018-11-20T13:23:19.932Z,14.97
2018-11-20T13:24:11.966Z,17.63
2018-11-20T13:25:06.780Z,15.33
2018-11-20T13:26:05.955Z,15.27
2018-11-20T13:27:03.580Z,15.57
2018-11-20T13:28:08.800Z,14.87
2018-11-20T13:29:00.692Z,16.23
2018-11-20T13:29:52.836Z,15.00
2018-11-20T13:30:54.774Z,16.07
2018-11-20T13:31:46.782Z,16.77
2018-11-20T13:32:54.803Z,16.40
2018-11-20T13:33:50.879Z,16.93
2018-11-20T13:34:43.017Z,16.10
2018-11-20T13:35:34.765Z,16.73
2018-11-20T13:36:29.804Z,16.03
2018-11-20T13:37:21.616Z,17.50
2018-11-20T13:38:24.087Z,13.97
2018-11-20T13:39:15.614Z,17.30
2018-11-20T13:39:58.129Z,16.10
2018-11-20T13:41:17.959Z,17.17
2018-11-20T13:42:21.865Z,19.47
2018-11-20T13:43:08.980Z,15.73
2018-11-20T13:43:59.051Z,15.93
2018-11-20T13:44:52.530Z,16.27
2018-11-20T13:45:45.997Z,18.60
2018-11-20T13:46:40.886Z,17.37
2018-11-20T13:47:40.018Z,17.30
2018-11-20T13:48:28.522Z,17.40
2018-11-20T13:49:21.784Z,17.73
2018-11-20T13:50:27.282Z,18.00
2018-11-20T13:51:24.837Z,17.23
2018-11-20T13:52:16.807Z,17.13
2018-11-20T13:53:11.936Z,16.80
2018-11-20T13:54:01.570Z,17.33
2018-11-20T13:54:53.365Z,17.93
2018-11-20T13:55:55.931Z,16.40
2018-11-20T13:57:04.106Z,16.50
2018-11-20T13:57:57.974Z,19.73
2018-11-20T13:58:49.868Z,18.03
2018-11-20T13:59:46.488Z,17.77
2018-11-20T14:00:38.013Z,23.57
2018-11-20T14:01:30.266Z,20.13
2018-11-20T14:02:22.087Z,15.87
2018-11-20T14:03:14.087Z,17.83
2018-11-20T14:04:02.653Z,19.10
2018-11-20T14:04:55.016Z,18.20
2018-11-20T14:05:41.100Z,18.13
2018-11-20T14:06:28.385Z,17.17
2018-11-20T14:07:33.836Z,17.83
2018-11-20T14:08:30.247Z,18.47
2018-11-20T14:09:23.577Z,16.13
2018-11-20T14:10:16.825Z,17.57
2018-11-20T14:10:57.095Z,18.23
2018-11-20T14:11:56.499Z,20.30
2018-11-20T14:12:49.920Z,16.47
2018-11-20T14:13:39.664Z,18.27
2018-11-20T14:14:34.195Z,17.80
2018-11-20T14:15:30.340Z,17.43
2018-11-20T14:16:41.784Z,16.80
2018-11-20T14:18:00.644Z,17.67
2018-11-20T14:18:54.103Z,17.67
2018-11-20T14:19:50.102Z,18.20
2018-11-20T14:20:44.468Z,19.07
2018-11-20T14:21:36.199Z,17.03
2018-11-20T14:22:28.004Z,16.60
2018-11-20T14:23:19.674Z,17.10
2018-11-20T14:24:11.860Z,17.97
2018-11-20T14:25:04.671Z,17.33
2018-11-20T14:26:04.066Z,17.53
2018-11-20T14:26:56.163Z,19.37
2018-11-20T14:27:41.813Z,17.97
2018-11-20T14:28:33.684Z,18.03
2018-11-20T14:29:35.365Z,18.00
2018-11-20T14:30:28.198Z,15.87
2018-11-20T14:31:20.105Z,19.33
2018-11-20T14:32:12.331Z,19.40
2018-11-20T14:33:11.464Z,18.30
2018-11-20T14:34:24.255Z,18.00
2018-11-20T14:35:14.967Z,20.50
2018-11-20T14:36:04.997Z,18.83
2018-11-20T14:37:07.056Z,16.00
2018-11-20T14:38:03.262Z,18.67
2018-11-20T14:38:56.599Z,19.73
2018-11-20T14:39:57.557Z,18.77
2018-11-20T14:40:49.722Z,19.80
2018-11-20T14:41:39.897Z,23.30
2018-11-20T14:42:33.646Z,20.17
2018-11-20T14:43:19.650Z,22.43
2018-11-20T14:44:12.702Z,18.37
2018-11-20T14:45:11.776Z,19.67
2018-11-20T14:46:05.029Z,20.77
2018-11-20T14:46:57.047Z,20.23
2018-11-20T14:48:05.211Z,19.63
2018-11-20T14:49:03.779Z,20.30
2018-11-20T14:50:05.126Z,20.13
2018-11-20T14:50:57.216Z,17.63
2018-11-20T14:51:50.912Z,18.33
2018-11-20T14:52:42.948Z,19.07
2018-11-20T14:53:38.952Z,19.17
2018-11-20T14:54:30.692Z,19.87
2018-11-20T14:55:33.659Z,20.23
2018-11-20T14:56:36.290Z,20.37
2018-11-20T14:57:21.270Z,19.23
2018-11-20T14:58:09.926Z,19.60
2018-11-20T14:59:15.451Z,18.93
2018-11-20T15:00:23.566Z,20.03
2018-11-20T15:01:16.948Z,21.27
2018-11-20T15:02:25.164Z,21.83
2018-11-20T15:03:18.715Z,22.07
2018-11-20T15:04:04.933Z,22.87
2018-11-20T15:05:01.199Z,23.20
2018-11-20T15:05:46.922Z,20.73
2018-11-20T15:06:38.950Z,21.87
2018-11-20T15:07:32.468Z,20.67
2018-11-20T15:08:25.717Z,20.97
2018-11-20T15:09:19.556Z,22.13
2018-11-20T15:10:22.062Z,21.80
2018-11-20T15:11:14.166Z,21.50
2018-11-20T15:12:06.483Z,25.93
2018-11-20T15:13:02.831Z,21.83
2018-11-20T15:13:57.275Z,21.10
2018-11-20T15:15:05.744Z,20.63
2018-11-20T15:15:57.648Z,22.33
2018-11-20T15:16:49.606Z,19.73
2018-11-20T15:17:47.585Z,22.87
2018-11-20T15:18:31.385Z,23.40
2018-11-20T15:19:24.893Z,23.43
2018-11-20T15:20:16.905Z,21.47
2018-11-20T15:21:09.808Z,22.07
2018-11-20T15:22:02.163Z,22.60
2018-11-20T15:22:55.687Z,22.90
2018-11-20T15:23:39.962Z,22.90
2018-11-20T15:24:39.083Z,22.60
2018-11-20T15:25:23.431Z,23.27
2018-11-20T15:26:17.167Z,24.60
2018-11-20T15:27:13.632Z,24.43
2018-11-20T15:28:15.811Z,23.20
2018-11-20T15:29:09.265Z,21.10
2018-11-20T15:30:03.432Z,25.17
2018-11-20T15:30:43.429Z,22.47
2018-11-20T15:31:54.841Z,21.57
2018-11-20T15:32:46.723Z,22.07
2018-11-20T15:33:33.794Z,21.00
2018-11-20T15:34:25.884Z,23.57
2018-11-20T15:35:31.231Z,23.77
2018-11-20T15:36:24.691Z,22.90
2018-11-20T15:37:16.473Z,22.83
2018-11-20T15:38:12.545Z,23.10
2018-11-20T15:39:08.155Z,23.93
2018-11-20T15:40:09.763Z,22.43
2018-11-20T15:41:12.006Z,26.90
2018-11-20T15:42:07.992Z,23.10
2018-11-20T15:43:10.242Z,24.13
2018-11-20T15:44:03.693Z,26.37
2018-11-20T15:44:55.591Z,23.43
2018-11-20T15:45:58.164Z,24.50
2018-11-20T15:46:51.682Z,22.33
2018-11-20T15:47:59.904Z,22.27
2018-11-20T15:49:08.585Z,24.77
2018-11-20T15:50:00.495Z,21.77
2018-11-20T15:50:52.314Z,24.77
2018-11-20T15:51:45.503Z,25.53
2018-11-20T15:52:34.989Z,26.17
2018-11-20T15:53:26.695Z,22.00
2018-11-20T15:54:19.298Z,28.10
2018-11-20T15:55:11.305Z,23.40
2018-11-20T15:56:10.032Z,23.53
2018-11-20T15:57:12.031Z,23.83
2018-11-20T15:58:20.740Z,26.07
2018-11-20T15:59:12.347Z,24.13
2018-11-20T16:00:05.786Z,22.97
2018-11-20T16:00:59.030Z,23.57
2018-11-20T16:02:07.566Z,25.87
2018-11-20T16:03:06.792Z,24.93
2018-11-20T16:03:58.312Z,24.27
2018-11-20T16:04:50.973Z,23.17
2018-11-20T16:05:43.051Z,24.97
2018-11-20T16:06:45.372Z,25.13
2018-11-20T16:07:37.164Z,26.27
2018-11-20T16:08:20.293Z,28.10
2018-11-20T16:09:23.295Z,25.87
2018-11-20T16:10:16.984Z,26.87
2018-11-20T16:11:19.408Z,26.50
2018-11-20T16:12:11.943Z,27.47
2018-11-20T16:13:14.281Z,34.13
2018-11-20T16:14:07.126Z,25.40
2018-11-20T16:14:58.731Z,24.57